Terminal Aerodrome Forecast
Issued by NWS

Home | Current Version | Previous Version | Text Only | Print | Product List | Glossary On
Versions: 1 2 3 4 5 6 7 8 9 10 11 12 13 14 15 16 17
000
FTUS46 KSGX 300520
TAFSNA
TAF
KSNA 300520Z 3006/3106 VRB05KT P6SM VCTS SCT015 BKN040 BKN100CB
     FM301700 22008KT P6SM SCT015 SCT080
     FM310200 VRB05KT P6SM SCT015 SCT080=

USA.gov is the U.S. government's official web portal to all federal, state and local government web resources and services.